AirNav   Pilot Hours Calculator
 
 535 users online  

TE88 BB Airpark
Rosharon, Texas, USA

GOING TO ROSHARON?


FAA INFORMATION EFFECTIVE 22 APRIL 2021

Location

FAA Identifier: TE88
Lat/Long: 29-21-24.9900N 095-27-33.8500W
29-21.416500N 095-27.564167W
29.3569417,-95.4594028
(estimated)
Elevation: 50 ft. / 15 m (estimated)
Variation: 05E (1995)
From city: 1 mile N of ROSHARON, TX
Time zone: UTC -5 (UTC -6 during Standard Time)
Zip code: 77583

Airport Operations

Airport use: Private use. Permission required prior to landing
Activation date: 08/2000
Control tower: no
ARTCC: HOUSTON CENTER
FSS: MONTGOMERY COUNTY FLIGHT SERVICE STATION
Attendance: SR-SS
Wind indicator: yes
Segmented circle: no

Airport Communications

WX AWOS-3 at AXH (9 nm N): 123.625 (281-431-6572)
WX ASOS at LBX (15 nm S): 119.925 (979-849-3319)
WX ASOS at LVJ (15 nm NE): 118.525 (281-992-1853)
WX ASOS at SGR (19 nm NW): 118.125 (281-242-7605)
WX ASOS at HOU (20 nm NE): PHONE 713-847-1462

Nearby radio navigation aids

VOR radial/distance  VOR name  Freq  Var
VUHr274/31.4SCHOLES VOR/DME113.0006E
IAHr184/36.5HUMBLE VORTAC116.6005E
MHFr246/38.9TRINITY VOR/DME113.6007E

Airport Services

Fuel available: 100LL JET-A

Runway Information

Runway 13/31

Dimensions: 3400 x 100 ft. / 1036 x 30 m
Surface: turf
RUNWAY 13  RUNWAY 31
Traffic pattern: leftleft
Obstructions: 50 ft. wires, 200 ft. from runway50 ft. wires, 200 ft. from runway

Airport Ownership and Management from official FAA records

Ownership: Privately-owned
Owner: SME PROPERTIES, LLC
PO BOX 1121
ROSHARON, TX 77583
Phone 281-369-3337
Manager: STEVE BOYD
PO BOX 1121
ROSHARON, TX 77583
Phone 281-369-3337

Airport Operational Statistics

Aircraft based on the field: 9
Single engine airplanes: 3
Multi engine airplanes: 6
    
Aircraft operations: avg 86/week *
100% local general aviation
* for 12-month period ending 31 December 2019

Additional Remarks

SKYDIVING SCHOOL LCTD ON ARPT.
FOR CD CTC HOUSTON ARTCC AT 281-230-5622.
EXTENSIVE SKYDIVING OPS SR-SS DAILY LOCAL- 123.15 ATC- 134.45

Instrument Procedures

There are no published instrument procedures at TE88.

Some nearby airports with instrument procedures:

KAXH - Houston Southwest Airport (9 nm N)
KLBX - Texas Gulf Coast Regional Airport (15 nm S)
KLVJ - Pearland Regional Airport (15 nm NE)
KSGR - Sugar Land Regional Airport (19 nm NW)
KHOU - William P Hobby Airport (20 nm NE)
 
Loc | Ops | Rwys | IFR | FBO | Links
Com | Nav | Svcs | Stats | Notes
Area around TE88 (BB Airpark)
 
Road maps at: MapQuest Bing Google
 
Aerial photo
No photo
 
Sectional chart

 
Airport distance calculator
Flying to BB Airpark? Find the distance to fly.

From to TE88

Sunrise and sunset
Times for 12-May-2021
 Local
(UTC-5)
 Zulu
(UTC)
Morning civil twilight06:0711:07
Sunrise06:3211:32
Sunset20:0401:04
Evening civil twilight20:3001:30

Current date and time
Zulu (UTC)  12-May-2021 05:45:42
Local (UTC-5)  12-May-2021 00:45:42
 
METAR
KAXH 
9nm N 
120535Z AUTO 01004KT 10SM SCT014 21/19 A2999 RMK AO2 LTG DSNT SE T02080192
KLBX 
14nm S 
120541Z AUTO 01005KT 10SM BKN010 22/20 A2998 RMK AO2 T02220200
KLVJ 
15nm NE 
120453Z AUTO 04009KT 10SM OVC012 22/19 A2999 RMK AO2 SLP155 T02220194
KSGR 
18nm NW 
120453Z AUTO 05008KT 10SM CLR 22/17 A3000 RMK AO2 SLP159 T02220172
KHOU 
19nm NE 
120453Z 05009KT 10SM FEW008 FEW015 BKN160 BKN250 22/18 A2998 RMK AO2 SLP158 T02220178
TAF
KLBX 
14nm S 
120303Z 1203/1224 VRB10KT P6SM -SHRA VCTS SCT015 BKN045CB FM120600 03008KT P6SM VCSH SCT008 BKN015 FM121500 02010KT P6SM SCT015 BKN025 FM122100 01010KT P6SM SCT025 BKN035
KSGR 
18nm NW 
112259Z 1123/1218 15015G20KT P6SM SCT035 TEMPO 1123/1124 35020G35KT -RA FM120000 13007KT P6SM SCT015 BKN050 FM120200 07010KT P6SM VCTS BKN025CB TEMPO 1203/1206 4SM TSRA BKN015CB FM120600 03010KT 6SM -SHRA BR VCTS OVC015CB FM121100 04012KT P6SM VCSH SCT008 OVC015
KHOU 
19nm NE 
120300Z 1203/1224 04012KT P6SM VCSH SCT030 SCT045 BKN060 FM120700 03010KT P6SM VCSH SCT008 BKN015 BKN025 FM121500 02010KT P6SM SCT015 BKN025 BKN090 FM122100 01014KT P6SM SCT015 BKN040 BKN080
NOTAMs
Click for the latest NOTAMs
NOTAMs are issued by the DoD/FAA and will open in a separate window not controlled by AirNav.

 

 
 

Would you like to see your business listed on this page?

 If your business provides an interesting product or service to pilots, flight crews, aircraft, or users of the BB Airpark, you should consider listing it here.  To start the listing process, click on the button below
 
Add a business
 

Other Pages about BB Airpark

Update a link
 
Copyright © AirNav, LLC. All rights reserved. Privacy Policy  Contact